createdAt,value
2022-10-13T00:00:49.458Z,69.13
2022-10-13T00:06:10.914Z,65.36
2022-10-13T00:11:25.027Z,55.42
2022-10-13T00:16:29.337Z,54.67
2022-10-13T00:21:32.556Z,56.85
2022-10-13T00:26:35.548Z,58.85
2022-10-13T00:31:38.552Z,70.44
2022-10-13T00:36:41.656Z,66.30
2022-10-13T00:41:45.581Z,59.45
2022-10-13T00:46:48.589Z,52.19
2022-10-13T00:51:51.896Z,53.42
2022-10-13T00:56:55.756Z,56.22
2022-10-13T01:02:00.938Z,58.15
2022-10-13T01:07:05.811Z,59.65
2022-10-13T01:12:19.368Z,71.68
2022-10-13T01:17:42.355Z,65.42
2022-10-13T01:23:37.458Z,54.15
2022-10-13T01:29:33.314Z,53.80
2022-10-13T01:35:40.932Z,56.00
2022-10-13T01:41:10.990Z,58.22
2022-10-13T01:46:26.439Z,72.23
2022-10-13T01:51:32.651Z,65.12
2022-10-13T01:56:35.968Z,54.84
2022-10-13T02:02:18.860Z,54.17
2022-10-13T02:07:49.503Z,55.38
2022-10-13T02:13:01.227Z,57.90
2022-10-13T02:18:06.140Z,59.80
2022-10-13T02:23:13.992Z,73.02
2022-10-13T02:28:18.343Z,67.02
2022-10-13T02:33:21.672Z,60.24
2022-10-13T02:38:25.283Z,52.56
2022-10-13T02:43:28.799Z,52.98
2022-10-13T02:48:31.905Z,56.04
2022-10-13T02:53:35.421Z,58.11
2022-10-13T02:58:38.873Z,70.02
2022-10-13T03:03:43.788Z,68.36
2022-10-13T03:08:46.822Z,61.37
2022-10-13T03:13:49.896Z,53.34
2022-10-13T03:18:52.924Z,53.27
2022-10-13T03:23:55.907Z,55.84
2022-10-13T03:28:59.140Z,57.96
2022-10-13T03:34:03.349Z,59.94
2022-10-13T03:39:06.893Z,72.94
2022-10-13T03:44:13.534Z,68.46
2022-10-13T03:49:17.612Z,61.48
2022-10-13T03:54:20.581Z,53.35
2022-10-13T03:59:23.615Z,53.40
2022-10-13T04:04:28.841Z,55.50
2022-10-13T04:09:32.082Z,57.75
2022-10-13T04:14:35.259Z,59.59
2022-10-13T04:19:38.213Z,72.29
2022-10-13T04:24:41.332Z,67.65
2022-10-13T04:29:44.412Z,61.91
2022-10-13T04:34:47.478Z,54.43
2022-10-13T04:39:50.616Z,54.10
2022-10-13T04:44:53.589Z,56.60
2022-10-13T04:49:56.618Z,58.85
2022-10-13T04:54:59.700Z,70.13
2022-10-13T05:00:07.488Z,67.49
2022-10-13T05:05:11.029Z,61.85
2022-10-13T05:10:14.885Z,54.68
2022-10-13T05:15:18.265Z,54.43
2022-10-13T05:20:21.296Z,56.46
2022-10-13T05:25:24.383Z,58.64
2022-10-13T05:30:27.508Z,70.52
2022-10-13T05:35:30.909Z,67.00
2022-10-13T05:40:34.009Z,61.84
2022-10-13T05:45:37.212Z,54.55
2022-10-13T05:50:41.571Z,54.12
2022-10-13T05:55:44.859Z,56.47
2022-10-13T06:00:49.628Z,58.55
2022-10-13T06:05:53.278Z,69.45
2022-10-13T06:10:56.657Z,67.86
2022-10-13T06:15:59.752Z,63.18
2022-10-13T06:21:03.290Z,54.17
2022-10-13T06:26:09.235Z,53.85
2022-10-13T06:31:12.566Z,56.32
2022-10-13T06:36:15.851Z,58.25
2022-10-13T06:41:19.265Z,69.70
2022-10-13T06:46:22.273Z,67.11
2022-10-13T06:51:25.913Z,62.21
2022-10-13T06:56:30.629Z,55.52
2022-10-13T07:01:36.750Z,54.55
2022-10-13T07:06:43.710Z,56.15
2022-10-13T07:11:47.834Z,58.10
2022-10-13T07:16:50.940Z,69.06
2022-10-13T07:21:54.147Z,68.35
2022-10-13T07:26:57.261Z,62.25
2022-10-13T07:32:00.260Z,54.48
2022-10-13T07:37:03.406Z,53.30
2022-10-13T07:42:06.468Z,55.30
2022-10-13T07:47:09.987Z,58.65
2022-10-13T07:52:13.093Z,61.30
2022-10-13T07:57:16.207Z,69.37
2022-10-13T08:02:21.646Z,65.45
2022-10-13T08:07:25.183Z,55.34
2022-10-13T08:12:28.284Z,54.17
2022-10-13T08:17:31.397Z,57.66
2022-10-13T08:22:34.605Z,59.65
2022-10-13T08:27:50.537Z,66.67
2022-10-13T08:32:54.427Z,55.88
2022-10-13T08:37:57.532Z,55.79
2022-10-13T08:43:00.785Z,58.37
2022-10-13T08:48:12.668Z,59.24
2022-10-13T08:53:48.947Z,62.93
2022-10-13T08:58:54.608Z,65.09
2022-10-13T09:04:18.190Z,53.93
2022-10-13T09:09:21.404Z,51.11
2022-10-13T09:14:31.544Z,55.51
2022-10-13T09:19:39.000Z,57.26
2022-10-13T09:24:42.391Z,59.15
2022-10-13T09:29:46.322Z,59.52
2022-10-13T09:34:51.748Z,61.28
2022-10-13T09:40:21.827Z,60.33
2022-10-13T09:45:26.987Z,60.22
2022-10-13T09:50:33.543Z,60.23
2022-10-13T09:55:36.765Z,60.32
2022-10-13T10:00:40.689Z,60.25
2022-10-13T10:05:53.910Z,59.97
2022-10-13T10:11:00.840Z,59.71
2022-10-13T10:16:38.484Z,59.01
2022-10-13T10:21:56.198Z,57.28
2022-10-13T10:27:06.841Z,57.73
2022-10-13T10:32:28.929Z,58.92
2022-10-13T10:38:22.697Z,58.13
2022-10-13T10:43:31.994Z,57.87
2022-10-13T10:48:39.763Z,57.50
2022-10-13T10:56:39.228Z,57.51
2022-10-13T11:02:01.193Z,57.37
2022-10-13T11:07:05.510Z,56.19
2022-10-13T11:12:22.863Z,56.08
2022-10-13T11:17:39.067Z,55.36
2022-10-13T11:22:42.171Z,54.87
2022-10-13T11:27:45.592Z,54.82
2022-10-13T11:32:55.851Z,54.43
2022-10-13T11:38:17.779Z,54.30
2022-10-13T11:43:36.475Z,53.92
2022-10-13T11:49:17.033Z,53.08
2022-10-13T11:54:39.830Z,53.64
2022-10-13T11:59:48.270Z,52.97
2022-10-13T12:05:24.646Z,53.49
2022-10-13T12:10:36.360Z,53.98
2022-10-13T12:15:44.583Z,52.77
2022-10-13T12:20:55.581Z,53.24
2022-10-13T12:26:00.176Z,52.98
2022-10-13T12:31:03.731Z,52.26
2022-10-13T12:36:35.529Z,52.04
2022-10-13T12:41:46.209Z,52.40
2022-10-13T12:46:58.885Z,52.47
2022-10-13T12:52:12.166Z,52.46
2022-10-13T12:57:35.548Z,53.41
2022-10-13T13:02:39.302Z,52.96
2022-10-13T13:07:52.937Z,52.14
2022-10-13T13:12:56.758Z,53.00
2022-10-13T13:18:39.874Z,52.63
2022-10-13T13:23:51.187Z,52.67
2022-10-13T13:28:57.264Z,51.50
2022-10-13T13:34:00.383Z,51.52
2022-10-13T13:39:03.886Z,51.82
2022-10-13T13:44:06.891Z,51.45
2022-10-13T13:49:12.501Z,50.78
2022-10-13T13:54:15.559Z,50.12
2022-10-13T13:59:18.670Z,49.72
2022-10-13T14:04:21.674Z,49.91
2022-10-13T14:09:24.981Z,49.41
2022-10-13T14:14:31.979Z,49.89
2022-10-13T14:19:35.184Z,48.99
2022-10-13T14:24:38.413Z,50.21
2022-10-13T14:29:41.914Z,50.41
2022-10-13T14:34:45.017Z,51.26
2022-10-13T14:39:48.121Z,51.78
2022-10-13T14:44:51.228Z,51.95
2022-10-13T14:49:54.449Z,52.24
2022-10-13T14:54:57.549Z,52.69
2022-10-13T15:00:02.036Z,52.86
2022-10-13T15:05:06.721Z,52.62
2022-10-13T15:10:10.244Z,53.12
2022-10-13T15:15:13.271Z,53.30
2022-10-13T15:20:16.468Z,54.01
2022-10-13T15:25:19.464Z,54.77
2022-10-13T15:30:22.563Z,55.01
2022-10-13T15:35:29.251Z,55.08
2022-10-13T15:40:36.656Z,55.29
2022-10-13T15:45:40.483Z,55.63
2022-10-13T15:50:44.101Z,56.04
2022-10-13T15:55:48.955Z,56.49
2022-10-13T16:00:52.057Z,56.89
2022-10-13T16:05:55.149Z,57.29
2022-10-13T16:10:58.519Z,57.80
2022-10-13T16:16:02.123Z,58.39
2022-10-13T16:21:18.820Z,58.69
2022-10-13T16:26:22.492Z,59.08
2022-10-13T16:31:25.449Z,59.88
2022-10-13T16:36:28.424Z,60.40
2022-10-13T16:41:31.569Z,60.91
2022-10-13T16:46:34.831Z,61.48
2022-10-13T16:51:38.172Z,72.41
2022-10-13T16:56:41.280Z,67.43
2022-10-13T17:01:45.508Z,54.39
2022-10-13T17:06:48.656Z,51.97
2022-10-13T17:11:51.924Z,53.15
2022-10-13T17:16:57.745Z,54.48
2022-10-13T17:22:01.419Z,55.84
2022-10-13T17:27:04.522Z,57.20
2022-10-13T17:32:08.445Z,58.38
2022-10-13T17:37:11.554Z,59.49
2022-10-13T17:42:14.655Z,60.59
2022-10-13T17:47:18.021Z,71.96
2022-10-13T17:52:21.676Z,67.00
2022-10-13T17:57:24.795Z,54.23
2022-10-13T18:02:27.909Z,52.31
2022-10-13T18:07:30.836Z,53.69
2022-10-13T18:12:33.964Z,55.25
2022-10-13T18:17:36.974Z,56.78
2022-10-13T18:22:39.915Z,58.25
2022-10-13T18:27:43.441Z,59.42
2022-10-13T18:32:46.647Z,60.63
2022-10-13T18:37:52.324Z,72.90
2022-10-13T18:42:55.412Z,66.11
2022-10-13T18:47:58.621Z,54.49
2022-10-13T18:53:01.573Z,52.85
2022-10-13T18:58:04.665Z,54.21
2022-10-13T19:03:08.560Z,56.00
2022-10-13T19:08:11.596Z,57.43
2022-10-13T19:13:14.661Z,58.91
2022-10-13T19:18:17.779Z,60.70
2022-10-13T19:23:22.174Z,71.96
2022-10-13T19:28:25.869Z,68.79
2022-10-13T19:33:28.946Z,61.08
2022-10-13T19:38:31.965Z,52.24
2022-10-13T19:43:35.056Z,51.75
2022-10-13T19:48:38.095Z,53.73
2022-10-13T19:53:42.238Z,55.81
2022-10-13T19:58:45.183Z,57.34
2022-10-13T20:03:48.949Z,59.05
2022-10-13T20:08:52.207Z,71.07
2022-10-13T20:13:55.230Z,68.13
2022-10-13T20:19:01.002Z,61.11
2022-10-13T20:24:04.213Z,53.11
2022-10-13T20:29:07.866Z,52.58
2022-10-13T20:34:11.555Z,54.42
2022-10-13T20:39:14.837Z,56.59
2022-10-13T20:44:17.943Z,57.79
2022-10-13T20:49:21.126Z,59.53
2022-10-13T20:54:24.155Z,70.91
2022-10-13T20:59:27.626Z,70.54
2022-10-13T21:04:30.577Z,63.04
2022-10-13T21:09:36.502Z,53.97
2022-10-13T21:14:39.444Z,52.05
2022-10-13T21:19:42.899Z,53.71
2022-10-13T21:24:45.939Z,56.83
2022-10-13T21:29:48.902Z,58.66
2022-10-13T21:34:53.767Z,60.14
2022-10-13T21:39:56.665Z,70.26
2022-10-13T21:44:59.906Z,69.87
2022-10-13T21:50:04.853Z,62.72
2022-10-13T21:55:08.654Z,52.85
2022-10-13T22:00:12.864Z,52.62
2022-10-13T22:05:15.943Z,54.95
2022-10-13T22:10:18.949Z,56.76
2022-10-13T22:15:21.828Z,58.35
2022-10-13T22:20:24.949Z,68.82
2022-10-13T22:25:27.951Z,69.55
2022-10-13T22:30:30.920Z,63.75
2022-10-13T22:35:35.874Z,54.12
2022-10-13T22:40:39.276Z,52.18
2022-10-13T22:45:51.537Z,53.82
2022-10-13T22:50:54.562Z,56.37
2022-10-13T22:55:57.748Z,58.45
2022-10-13T23:01:14.641Z,69.18
2022-10-13T23:06:22.052Z,68.98
2022-10-13T23:11:25.046Z,61.75
2022-10-13T23:16:28.605Z,53.53
2022-10-13T23:21:32.067Z,51.86
2022-10-13T23:26:35.168Z,53.85
2022-10-13T23:31:39.066Z,55.95
2022-10-13T23:36:42.057Z,57.89
2022-10-13T23:41:45.029Z,69.19
2022-10-13T23:46:47.978Z,69.92
2022-10-13T23:51:50.866Z,64.14
2022-10-13T23:56:53.869Z,54.81
